createdAt,value
2022-08-14T06:25:52.674Z,98256.72
2022-08-14T06:29:07.205Z,98241.88
2022-08-14T06:32:38.779Z,98244.38
2022-08-14T06:35:47.649Z,98235.81
2022-08-14T06:38:57.180Z,98231.41
2022-08-14T06:42:06.972Z,98221.78
2022-08-14T06:45:20.992Z,98225.38
2022-08-14T06:48:38.094Z,98212.28
2022-08-14T06:51:54.148Z,98214.00
2022-08-14T06:55:03.719Z,98213.94
2022-08-14T06:58:28.456Z,98207.06
2022-08-14T07:01:56.656Z,98198.47
2022-08-14T07:05:22.716Z,98190.66
2022-08-14T07:08:35.987Z,98186.16
2022-08-14T07:11:45.593Z,98196.34
2022-08-14T07:15:01.024Z,98195.22
2022-08-14T07:18:13.243Z,98192.44
2022-08-14T07:21:23.634Z,98195.66
2022-08-14T07:24:33.086Z,98191.94
2022-08-14T07:27:45.234Z,98188.19
2022-08-14T07:31:05.172Z,98181.84
2022-08-14T07:34:36.616Z,98184.06
2022-08-14T07:37:48.932Z,98193.19
2022-08-14T07:41:06.923Z,98195.16
2022-08-14T07:44:32.554Z,98197.28
2022-08-14T07:47:45.807Z,98188.72
2022-08-14T07:51:10.620Z,98197.69
2022-08-14T07:54:23.521Z,98193.56
2022-08-14T07:57:44.104Z,98184.19
2022-08-14T08:00:58.231Z,98177.41
2022-08-14T08:04:18.854Z,98168.88
2022-08-14T08:07:39.182Z,98167.31
2022-08-14T08:11:03.002Z,98165.75
2022-08-14T08:14:17.074Z,98166.97
2022-08-14T08:17:34.758Z,98162.78
2022-08-14T08:20:52.198Z,98169.06
2022-08-14T08:24:04.949Z,98159.53
2022-08-14T08:27:17.011Z,98159.75
2022-08-14T08:30:27.965Z,98160.03
2022-08-14T08:33:40.224Z,98162.00
2022-08-14T08:36:49.780Z,98158.47
2022-08-14T08:40:20.726Z,98145.09
2022-08-14T08:43:34.877Z,98142.84
2022-08-14T08:46:49.252Z,98146.81
2022-08-14T08:50:03.632Z,98148.16
2022-08-14T08:53:33.957Z,98143.03
2022-08-14T08:56:52.479Z,98135.31
2022-08-14T09:00:02.896Z,98127.44
2022-08-14T09:03:24.236Z,98124.38
2022-08-14T09:07:00.317Z,98109.44
2022-08-14T09:10:14.843Z,98103.09
2022-08-14T09:13:35.531Z,98116.22
2022-08-14T09:16:48.369Z,98117.38
2022-08-14T09:20:01.938Z,98105.63
2022-08-14T09:23:13.291Z,98101.19
2022-08-14T09:26:28.477Z,98102.53
2022-08-14T09:29:41.881Z,98105.72
2022-08-14T09:33:12.545Z,98094.63
2022-08-14T09:36:35.256Z,98093.56
2022-08-14T09:39:57.587Z,98090.00
2022-08-14T09:43:22.363Z,98084.22
2022-08-14T09:46:33.975Z,98081.19
2022-08-14T09:49:52.262Z,98086.94
2022-08-14T09:53:17.684Z,98087.19
2022-08-14T09:56:30.853Z,98082.50
2022-08-14T09:59:45.994Z,98100.56
2022-08-14T10:03:02.637Z,98087.91
2022-08-14T10:06:19.245Z,98082.19
2022-08-14T10:09:33.295Z,98083.66
2022-08-14T10:12:50.060Z,98091.22
2022-08-14T10:16:02.579Z,98081.19
2022-08-14T10:19:16.022Z,98069.34
2022-08-14T10:23:12.950Z,98064.56
2022-08-14T10:26:05.046Z,98059.19
2022-08-14T10:29:19.868Z,98042.19
2022-08-14T10:32:51.505Z,98021.13
2022-08-14T10:36:03.794Z,98035.38
2022-08-14T10:39:18.500Z,98020.22
2022-08-14T10:42:38.676Z,97998.41
2022-08-14T10:46:04.055Z,97993.78
2022-08-14T10:49:26.939Z,97986.66
2022-08-14T10:52:42.289Z,97992.00
2022-08-14T10:55:59.796Z,97991.50
2022-08-14T10:59:13.654Z,97982.91
2022-08-14T11:02:44.823Z,97996.38
2022-08-14T11:06:15.121Z,97974.09
2022-08-14T11:09:31.287Z,97972.38
2022-08-14T11:12:47.777Z,97971.06
2022-08-14T11:16:00.769Z,97974.50
2022-08-14T11:19:12.797Z,97963.31
2022-08-14T11:22:55.605Z,97971.84
2022-08-14T11:25:57.682Z,97962.84
2022-08-14T11:29:11.188Z,97969.38
2022-08-14T11:32:20.921Z,97963.63
2022-08-14T11:35:37.035Z,97965.66
2022-08-14T11:38:54.338Z,97967.41
2022-08-14T11:42:55.532Z,97978.38
2022-08-14T11:45:38.718Z,97971.19
2022-08-14T11:49:02.891Z,97961.78
2022-08-14T11:52:16.051Z,97960.44
2022-08-14T11:55:28.181Z,97961.78
2022-08-14T11:58:42.433Z,97958.19
2022-08-14T12:01:55.092Z,97953.28
2022-08-14T12:05:09.675Z,97941.44
2022-08-14T12:08:24.335Z,97936.22
2022-08-14T12:11:43.138Z,97926.72
2022-08-14T12:15:00.096Z,97927.19
2022-08-14T12:18:19.253Z,97925.81
2022-08-14T12:21:32.319Z,97910.91
2022-08-14T12:24:44.362Z,97905.97
2022-08-14T12:27:59.264Z,97920.81
2022-08-14T12:31:24.450Z,97904.31
2022-08-14T12:34:37.334Z,97905.59
2022-08-14T12:37:49.777Z,97906.25
2022-08-14T12:41:00.287Z,97901.25
2022-08-14T12:44:14.646Z,97895.19
2022-08-14T12:47:31.148Z,97898.13
2022-08-14T12:50:44.540Z,97878.63
2022-08-14T12:54:01.175Z,97875.13
2022-08-14T12:57:19.505Z,97874.28
2022-08-14T13:00:45.834Z,97869.38
2022-08-14T13:04:13.167Z,97866.47
2022-08-14T13:07:24.176Z,97852.06
2022-08-14T13:10:47.494Z,97853.66
2022-08-14T13:14:02.342Z,97853.22
2022-08-14T13:17:12.903Z,97845.84
2022-08-14T13:20:26.721Z,97831.31
2022-08-14T13:23:43.871Z,97829.25
2022-08-14T13:27:04.507Z,97824.81
2022-08-14T13:30:14.740Z,97832.44
2022-08-14T13:33:36.538Z,97828.78
2022-08-14T13:36:59.425Z,97818.25
2022-08-14T13:40:18.675Z,97809.50
2022-08-14T13:43:36.471Z,97812.53
2022-08-14T13:46:49.559Z,97811.56
2022-08-14T13:50:11.429Z,97806.00
2022-08-14T13:53:26.483Z,97803.19
2022-08-14T13:56:45.227Z,97799.22
2022-08-14T14:00:02.636Z,97789.78
2022-08-14T14:03:30.458Z,97781.28
2022-08-14T14:06:47.649Z,97784.69
2022-08-14T14:10:06.655Z,97784.50
2022-08-14T14:13:18.290Z,97778.84
2022-08-14T14:16:31.274Z,97774.28
2022-08-14T14:19:46.341Z,97771.63
2022-08-14T14:23:01.713Z,97781.69
2022-08-14T14:26:21.776Z,97762.25
2022-08-14T14:29:34.489Z,97763.03
2022-08-14T14:33:05.349Z,97771.22
2022-08-14T14:36:23.246Z,97768.50
2022-08-14T14:39:35.178Z,97759.78
2022-08-14T14:42:53.366Z,97762.56
2022-08-14T14:46:09.272Z,97756.13
2022-08-14T14:49:21.655Z,97753.34
2022-08-14T14:52:32.381Z,97754.59
2022-08-14T14:56:48.024Z,97749.72
2022-08-14T14:59:19.981Z,97750.22
2022-08-14T15:02:37.341Z,97744.88
2022-08-14T15:05:53.191Z,97745.78
2022-08-14T15:09:04.796Z,97736.38
2022-08-14T15:12:55.695Z,97741.44
2022-08-14T15:15:49.921Z,97738.63
2022-08-14T15:19:05.624Z,97735.69
2022-08-14T15:22:15.633Z,97746.00
2022-08-14T15:25:28.638Z,97733.28
2022-08-14T15:28:39.151Z,97738.53
2022-08-14T15:31:50.170Z,97732.03
2022-08-14T15:35:03.170Z,97728.97
2022-08-14T15:38:18.074Z,97727.34
2022-08-14T15:41:41.221Z,97726.81
2022-08-14T15:44:58.597Z,97726.47
2022-08-14T15:48:15.770Z,97728.44
2022-08-14T15:51:32.681Z,97719.88
2022-08-14T15:54:43.133Z,97714.63
2022-08-14T15:58:03.707Z,97723.72
2022-08-14T16:01:43.306Z,97718.69
2022-08-14T16:04:55.015Z,97716.16
2022-08-14T16:08:27.347Z,97711.19
2022-08-14T16:11:37.579Z,97715.38
2022-08-14T16:14:56.235Z,97713.03
2022-08-14T16:18:08.237Z,97704.53
2022-08-14T16:21:32.231Z,97713.25
2022-08-14T16:25:00.043Z,97703.41
2022-08-14T16:28:27.836Z,97713.44
2022-08-14T16:31:39.815Z,97700.22
2022-08-14T16:34:55.709Z,97702.53
2022-08-14T16:38:19.865Z,97698.41
2022-08-14T16:41:39.307Z,97688.31
2022-08-14T16:44:58.071Z,97686.03
2022-08-14T16:48:55.616Z,97690.38
2022-08-14T16:51:40.790Z,97685.94
2022-08-14T16:54:51.780Z,97682.06
2022-08-14T16:58:04.449Z,97681.09
2022-08-14T17:01:22.688Z,97686.72
2022-08-14T17:04:41.067Z,97687.41
2022-08-14T17:08:32.711Z,97676.81
2022-08-14T17:11:54.446Z,97680.81
2022-08-14T17:15:10.045Z,97677.06
2022-08-14T17:18:41.043Z,97677.44
2022-08-14T17:21:52.828Z,97678.72
2022-08-14T17:25:04.022Z,97679.28
2022-08-14T17:28:51.599Z,97672.03
2022-08-14T17:31:58.757Z,97663.06
2022-08-14T17:35:20.768Z,97670.03
2022-08-14T17:42:08.062Z,97661.91
2022-08-14T17:45:38.903Z,97670.53
2022-08-14T17:49:15.595Z,97665.91
2022-08-14T17:52:36.431Z,97666.47
2022-08-14T17:56:00.935Z,97672.22
2022-08-14T17:59:17.597Z,97682.19
2022-08-14T18:02:30.969Z,97680.88
2022-08-14T18:06:09.561Z,97678.56
2022-08-14T18:09:25.159Z,97684.19
2022-08-14T18:12:43.833Z,97687.19
2022-08-14T18:15:55.787Z,97691.88
2022-08-14T18:19:08.092Z,97688.50
2022-08-14T18:22:32.943Z,97693.06
2022-08-14T18:25:57.695Z,97690.56
2022-08-14T18:29:14.897Z,97697.84
2022-08-14T18:32:47.023Z,97703.38
2022-08-14T18:36:47.185Z,97703.56
2022-08-14T18:40:03.567Z,97707.19
2022-08-14T18:43:08.727Z,97709.03
2022-08-14T18:47:00.013Z,97710.91
2022-08-14T18:50:27.897Z,97705.75
2022-08-14T18:53:53.323Z,97712.81
2022-08-14T18:57:05.652Z,97716.34
2022-08-14T19:00:51.303Z,97719.00
2022-08-14T19:04:04.520Z,97721.66
2022-08-14T19:07:19.530Z,97733.88
2022-08-14T19:10:38.928Z,97740.88
2022-08-14T19:13:55.908Z,97740.00
2022-08-14T19:17:40.731Z,97740.81
2022-08-14T19:20:55.434Z,97740.69
2022-08-14T19:24:27.278Z,97740.69
2022-08-14T19:27:49.771Z,97740.63
2022-08-14T19:31:37.088Z,97742.31
2022-08-14T19:34:54.495Z,97753.56
2022-08-14T19:38:32.711Z,97747.25
2022-08-14T19:41:52.016Z,97746.38
2022-08-14T19:45:15.642Z,97741.97
2022-08-14T19:48:25.857Z,97739.34
2022-08-14T19:51:45.079Z,97748.91
2022-08-14T19:54:59.053Z,97750.63
2022-08-14T19:58:12.419Z,97748.81
2022-08-14T20:01:36.352Z,97745.25
2022-08-14T20:04:57.796Z,97746.88
2022-08-14T20:09:05.779Z,97747.63
2022-08-14T20:12:03.107Z,97747.53
2022-08-14T20:15:15.428Z,97748.38
2022-08-14T20:18:49.882Z,97744.88
